createdAt,value
2018-08-17T00:00:50.024Z,34.5
2018-08-17T00:01:52.205Z,34.5
2018-08-17T00:02:54.656Z,34.5
2018-08-17T00:03:57.110Z,34.5
2018-08-17T00:04:59.545Z,34.5
2018-08-17T00:06:01.459Z,34.4
2018-08-17T00:07:03.903Z,34.5
2018-08-17T00:08:06.339Z,34.4
2018-08-17T00:09:08.781Z,34.5
2018-08-17T00:10:11.234Z,34.6
2018-08-17T00:11:13.124Z,34.7
2018-08-17T00:12:15.563Z,34.6
2018-08-17T00:13:18.010Z,34.5
2018-08-17T00:14:20.455Z,34.6
2018-08-17T00:15:22.371Z,34.4
2018-08-17T00:16:24.537Z,34.5
2018-08-17T00:17:26.985Z,34.6
2018-08-17T00:18:43.832Z,34.6
2018-08-17T00:19:45.732Z,34.7
2018-08-17T00:20:47.634Z,34.6
2018-08-17T00:21:49.805Z,34.7
2018-08-17T00:22:52.257Z,34.6
2018-08-17T00:23:54.695Z,34.6
2018-08-17T00:24:57.145Z,34.6
2018-08-17T00:25:59.317Z,34.6
2018-08-17T00:27:01.511Z,34.6
2018-08-17T00:28:03.953Z,34.5
2018-08-17T00:29:05.864Z,34.7
2018-08-17T00:30:08.051Z,34.7
2018-08-17T00:31:09.647Z,34.6
2018-08-17T00:32:12.116Z,34.7
2018-08-17T00:33:14.556Z,34.8
2018-08-17T00:34:16.725Z,34.6
2018-08-17T00:35:18.614Z,34.7
2018-08-17T00:36:21.063Z,34.8
2018-08-17T00:37:23.511Z,34.6
2018-08-17T00:38:25.408Z,34.7
2018-08-17T00:39:27.316Z,34.7
2018-08-17T00:40:29.215Z,34.6
2018-08-17T00:41:31.117Z,34.7
2018-08-17T00:42:33.293Z,34.6
2018-08-17T00:43:35.477Z,34.8
2018-08-17T00:44:37.646Z,34.8
2018-08-17T00:45:40.101Z,34.7
2018-08-17T00:46:42.536Z,34.8
2018-08-17T00:47:44.986Z,34.7
2018-08-17T00:48:47.430Z,34.7
2018-08-17T00:49:49.873Z,34.8
2018-08-17T00:50:52.323Z,34.7
2018-08-17T00:51:54.816Z,34.8
2018-08-17T00:52:56.964Z,34.7
2018-08-17T00:53:59.416Z,34.6
2018-08-17T00:55:01.591Z,34.7
2018-08-17T00:56:03.469Z,34.8
2018-08-17T00:57:05.901Z,34.8
2018-08-17T00:58:08.109Z,34.8
2018-08-17T00:59:10.260Z,34.7
2018-08-17T01:00:12.179Z,34.8
2018-08-17T01:01:14.345Z,34.8
2018-08-17T01:02:16.523Z,34.7
2018-08-17T01:03:18.711Z,34.8
2018-08-17T01:04:21.162Z,34.8
2018-08-17T01:05:23.604Z,34.8
2018-08-17T01:06:26.061Z,34.8
2018-08-17T01:07:28.499Z,34.8
2018-08-17T01:08:30.676Z,34.8
2018-08-17T01:09:32.866Z,34.8
2018-08-17T01:10:35.315Z,34.7
2018-08-17T01:11:37.761Z,34.8
2018-08-17T01:12:39.649Z,34.8
2018-08-17T01:13:42.106Z,34.9
2018-08-17T01:14:44.276Z,34.8
2018-08-17T01:15:46.470Z,34.9
2018-08-17T01:16:48.933Z,34.7
2018-08-17T01:17:51.377Z,34.9
2018-08-17T01:18:53.286Z,34.8
2018-08-17T01:19:55.729Z,34.8
2018-08-17T01:20:58.188Z,34.7
2018-08-17T01:22:00.370Z,34.9
2018-08-17T01:23:02.810Z,34.8
2018-08-17T01:24:04.990Z,34.9
2018-08-17T01:25:07.432Z,34.9
2018-08-17T01:26:09.879Z,34.8
2018-08-17T01:27:12.321Z,34.7
2018-08-17T01:28:14.764Z,34.9
2018-08-17T01:29:16.945Z,34.8
2018-08-17T01:30:19.388Z,34.8
2018-08-17T01:31:21.580Z,34.9
2018-08-17T01:32:23.461Z,34.7
2018-08-17T01:33:25.638Z,34.8
2018-08-17T01:34:28.097Z,34.7
2018-08-17T01:35:30.531Z,34.9
2018-08-17T01:36:32.165Z,34.8
2018-08-17T01:37:34.046Z,34.9
2018-08-17T01:38:36.221Z,34.8
2018-08-17T01:39:38.502Z,34.9
2018-08-17T01:40:40.946Z,34.8
2018-08-17T01:41:43.386Z,34.9
2018-08-17T01:42:45.854Z,34.9
2018-08-17T01:43:48.048Z,34.8
2018-08-17T01:44:50.497Z,34.9
2018-08-17T01:45:52.387Z,34.9
2018-08-17T01:46:54.577Z,34.9
2018-08-17T01:47:56.760Z,34.9
2018-08-17T01:48:59.221Z,34.9
2018-08-17T01:50:01.666Z,35
2018-08-17T01:51:04.114Z,34.8
2018-08-17T01:52:06.599Z,34.9
2018-08-17T01:53:08.796Z,35
2018-08-17T01:54:11.244Z,34.8
2018-08-17T01:55:13.446Z,34.9
2018-08-17T01:56:15.902Z,34.9
2018-08-17T01:57:18.343Z,35
2018-08-17T01:58:20.246Z,34.8
2018-08-17T01:59:22.401Z,34.9
2018-08-17T02:00:24.849Z,34.9
2018-08-17T02:01:27.085Z,35
2018-08-17T02:02:29.272Z,34.9
2018-08-17T02:03:31.443Z,34.9
2018-08-17T02:04:33.893Z,34.8
2018-08-17T02:05:35.793Z,34.9
2018-08-17T02:06:38.242Z,34.9
2018-08-17T02:07:40.684Z,35
2018-08-17T02:08:42.875Z,35
2018-08-17T02:09:45.329Z,34.9
2018-08-17T02:10:47.791Z,34.9
2018-08-17T02:11:49.944Z,35
2018-08-17T02:12:51.815Z,35
2018-08-17T02:13:54.255Z,34.9
2018-08-17T02:14:56.695Z,35
2018-08-17T02:15:58.847Z,34.8
2018-08-17T02:17:00.766Z,35
2018-08-17T02:18:03.218Z,35
2018-08-17T02:19:05.699Z,35
2018-08-17T02:20:07.887Z,34.9
2018-08-17T02:21:10.054Z,34.9
2018-08-17T02:22:12.493Z,35
2018-08-17T02:23:14.127Z,35.1
2018-08-17T02:24:16.335Z,34.9
2018-08-17T02:25:18.812Z,34.9
2018-08-17T02:26:20.994Z,34.9
2018-08-17T02:27:23.169Z,34.9
2018-08-17T02:28:25.354Z,34.9
2018-08-17T02:29:27.226Z,35
2018-08-17T02:30:29.677Z,34.9
2018-08-17T02:31:32.126Z,35.1
2018-08-17T02:32:34.296Z,34.9
2018-08-17T02:33:36.746Z,34.9
2018-08-17T02:34:38.623Z,35
2018-08-17T02:35:41.080Z,34.9
2018-08-17T02:36:43.529Z,34.8
2018-08-17T02:37:45.716Z,35
2018-08-17T02:38:47.897Z,35
2018-08-17T02:39:50.361Z,35
2018-08-17T02:40:52.534Z,34.9
2018-08-17T02:41:54.717Z,35
2018-08-17T02:42:57.163Z,34.8
2018-08-17T02:43:59.342Z,34.9
2018-08-17T02:45:01.515Z,34.9
2018-08-17T02:46:03.686Z,34.9
2018-08-17T02:47:05.585Z,35
2018-08-17T02:48:08.025Z,34.9
2018-08-17T02:49:10.487Z,35.1
2018-08-17T02:50:12.659Z,34.9
2018-08-17T02:51:14.808Z,34.9
2018-08-17T02:52:16.984Z,35
2018-08-17T02:53:19.166Z,34.9
2018-08-17T02:54:21.347Z,34.9
2018-08-17T02:55:23.522Z,35
2018-08-17T02:56:25.969Z,35
2018-08-17T02:57:27.870Z,34.9
2018-08-17T02:58:30.040Z,34.9
2018-08-17T02:59:32.415Z,34.9
2018-08-17T03:00:35.100Z,35
2018-08-17T03:01:36.704Z,34.8
2018-08-17T03:02:38.320Z,34.9
2018-08-17T03:03:40.777Z,35
2018-08-17T03:04:42.976Z,34.9
2018-08-17T03:05:44.869Z,34.8
2018-08-17T03:06:46.753Z,34.9
2018-08-17T03:07:48.914Z,34.9
2018-08-17T03:08:51.070Z,34.8
2018-08-17T03:09:52.975Z,34.8
2018-08-17T03:10:55.432Z,34.9
2018-08-17T03:11:57.604Z,34.9
2018-08-17T03:12:59.483Z,34.8
2018-08-17T03:14:01.688Z,34.7
2018-08-17T03:15:03.850Z,34.8
2018-08-17T03:16:06.035Z,34.8
2018-08-17T03:17:07.987Z,34.7
2018-08-17T03:18:09.568Z,34.7
2018-08-17T03:19:12.007Z,34.8
2018-08-17T03:20:14.476Z,34.7
2018-08-17T03:21:16.648Z,34.7
2018-08-17T03:22:19.095Z,34.7
2018-08-17T03:23:21.279Z,34.8
2018-08-17T03:24:23.455Z,34.8
2018-08-17T03:25:25.918Z,34.7
2018-08-17T03:26:28.373Z,34.7
2018-08-17T03:27:30.553Z,34.7
2018-08-17T03:28:32.697Z,34.7
2018-08-17T03:29:34.610Z,34.7
2018-08-17T03:30:36.267Z,34.6
2018-08-17T03:31:38.429Z,34.7
2018-08-17T03:32:40.352Z,34.8
2018-08-17T03:33:42.803Z,34.7
2018-08-17T03:34:44.706Z,34.7
2018-08-17T03:35:46.867Z,34.7
2018-08-17T03:36:49.331Z,34.7
2018-08-17T03:37:51.516Z,34.6
2018-08-17T03:38:53.697Z,34.6
2018-08-17T03:39:55.603Z,34.7
2018-08-17T03:40:58.046Z,34.6
2018-08-17T03:42:00.485Z,34.6
2018-08-17T03:43:02.667Z,34.4
2018-08-17T03:44:05.107Z,34.6
2018-08-17T03:45:07.274Z,34.6
2018-08-17T03:46:09.418Z,34.5
2018-08-17T03:47:11.858Z,34.5
2018-08-17T03:48:14.294Z,34.5
2018-08-17T03:49:16.740Z,34.4
2018-08-17T03:50:19.184Z,34.6
2018-08-17T03:51:21.360Z,34.6
2018-08-17T03:52:23.506Z,34.5
2018-08-17T03:53:25.959Z,34.5
2018-08-17T03:54:28.138Z,34.5
2018-08-17T03:55:30.308Z,34.6
2018-08-17T03:56:31.933Z,34.6
2018-08-17T03:57:34.127Z,34.5
2018-08-17T03:58:36.053Z,34.5
2018-08-17T03:59:38.797Z,34.5
2018-08-17T04:00:41.342Z,34.6
2018-08-17T04:01:43.551Z,34.4
2018-08-17T04:02:46.058Z,34.4
2018-08-17T04:03:48.230Z,34.5
2018-08-17T04:04:50.699Z,34.4
2018-08-17T04:05:53.146Z,34.6
2018-08-17T04:06:55.335Z,34.5
2018-08-17T04:07:57.781Z,34.5
2018-08-17T04:09:00.237Z,34.5
2018-08-17T04:10:02.115Z,34.4
2018-08-17T04:11:04.570Z,34.5
2018-08-17T04:12:06.726Z,34.4
2018-08-17T04:13:08.640Z,34.4
2018-08-17T04:14:11.087Z,34.6
2018-08-17T04:15:13.533Z,34.4
2018-08-17T04:16:15.426Z,34.4
2018-08-17T04:17:17.304Z,34.5
2018-08-17T04:18:19.751Z,34.4
2018-08-17T04:19:22.206Z,34.5
2018-08-17T04:20:24.116Z,34.4
2018-08-17T04:21:26.560Z,34.5
2018-08-17T04:22:28.479Z,34.4
2018-08-17T04:23:30.680Z,34.5
2018-08-17T04:24:32.869Z,34.4
2018-08-17T04:25:35.306Z,34.3
2018-08-17T04:26:37.747Z,34.5
2018-08-17T04:27:40.184Z,34.5
2018-08-17T04:28:42.365Z,34.5
2018-08-17T04:29:44.268Z,34.5
2018-08-17T04:30:46.707Z,34.3
2018-08-17T04:31:48.901Z,34.4
2018-08-17T04:32:51.045Z,34.3
2018-08-17T04:33:53.484Z,34.4
2018-08-17T04:34:55.925Z,34.3
2018-08-17T04:35:58.387Z,34.2
2018-08-17T04:37:00.543Z,34.3
2018-08-17T04:38:02.727Z,34.3
2018-08-17T04:39:05.237Z,34.3
2018-08-17T04:40:07.417Z,34.4
2018-08-17T04:41:09.566Z,34.5
2018-08-17T04:42:11.748Z,34.3
2018-08-17T04:43:14.183Z,34.3
2018-08-17T04:44:16.632Z,34.3
2018-08-17T04:45:18.808Z,34.2
2018-08-17T04:46:20.976Z,34.4
2018-08-17T04:47:22.867Z,34.4
2018-08-17T04:48:25.322Z,34.2
2018-08-17T04:49:27.490Z,34.2
2018-08-17T04:50:29.960Z,34.2
2018-08-17T04:51:32.394Z,34.2
2018-08-17T04:52:34.295Z,34.3
2018-08-17T04:53:36.443Z,34.2
2018-08-17T04:54:38.357Z,34.2
2018-08-17T04:55:40.806Z,34.5
2018-08-17T04:56:42.949Z,34.4
2018-08-17T04:57:44.828Z,34.5
2018-08-17T04:58:47.010Z,34.4
2018-08-17T04:59:49.477Z,34.3
2018-08-17T05:00:51.926Z,34.2
2018-08-17T05:01:54.381Z,34.3
2018-08-17T05:02:56.556Z,34.4
2018-08-17T05:03:59.017Z,34.3
2018-08-17T05:05:00.927Z,34.3
2018-08-17T05:06:02.847Z,34.3
2018-08-17T05:07:05.288Z,34.2
2018-08-17T05:08:07.733Z,34.2
2018-08-17T05:09:09.626Z,34.2
2018-08-17T05:10:11.787Z,34.1
2018-08-17T05:11:14.241Z,34.1
2018-08-17T05:12:16.144Z,34.4
2018-08-17T05:13:18.572Z,34.2
2018-08-17T05:14:20.737Z,34.3
2018-08-17T05:15:22.647Z,34.1
2018-08-17T05:16:24.837Z,34.3
2018-08-17T05:17:27.280Z,34.1
2018-08-17T05:18:28.876Z,34.2
2018-08-17T05:19:31.316Z,34.3
2018-08-17T05:20:33.492Z,34.2
2018-08-17T05:21:36.147Z,34.4
2018-08-17T05:22:38.545Z,34.3
2018-08-17T05:23:40.692Z,34.3
2018-08-17T05:24:42.590Z,34.2
2018-08-17T05:25:45.037Z,34.3
2018-08-17T05:26:47.217Z,34.2
2018-08-17T05:27:49.671Z,34.2
2018-08-17T05:28:51.833Z,34.2
2018-08-17T05:29:54.018Z,34.3
2018-08-17T05:30:56.468Z,34.2
2018-08-17T05:31:58.639Z,34.3
2018-08-17T05:33:00.828Z,34.2
2018-08-17T05:34:03.008Z,34.2
2018-08-17T05:35:05.177Z,34.3
2018-08-17T05:36:07.790Z,34.3
2018-08-17T05:37:10.236Z,34.3
2018-08-17T05:38:12.418Z,34.3
2018-08-17T05:39:14.577Z,34.2
2018-08-17T05:40:16.728Z,34.1
2018-08-17T05:41:19.179Z,34.2
2018-08-17T05:42:21.626Z,34.2
2018-08-17T05:43:24.075Z,34.1
2018-08-17T05:44:26.523Z,34.3
2018-08-17T05:45:28.711Z,34.2
2018-08-17T05:46:30.892Z,34.3
2018-08-17T05:47:33.339Z,34
2018-08-17T05:48:35.805Z,34.3
2018-08-17T05:49:37.975Z,34.1
2018-08-17T05:50:40.417Z,34.2
2018-08-17T05:51:42.314Z,34.2
2018-08-17T05:52:44.227Z,34.3
2018-08-17T05:53:46.114Z,34.3
2018-08-17T05:54:48.572Z,34.2
2018-08-17T05:55:51.017Z,34.1
2018-08-17T05:56:53.468Z,34.1
2018-08-17T05:57:55.648Z,34.1
2018-08-17T05:58:57.824Z,34.2
2018-08-17T06:00:00.270Z,34.2
2018-08-17T06:01:02.466Z,34.3
2018-08-17T06:02:04.386Z,34.1
2018-08-17T06:03:06.300Z,34
2018-08-17T06:04:08.738Z,34.2
2018-08-17T06:05:11.182Z,34.2
2018-08-17T06:06:13.358Z,34.3
2018-08-17T06:07:15.815Z,34.1
2018-08-17T06:08:17.721Z,34.2
2018-08-17T06:09:19.898Z,34.1
2018-08-17T06:10:22.344Z,34.3
2018-08-17T06:11:24.746Z,34.1
2018-08-17T06:12:27.667Z,34.2
2018-08-17T06:13:29.590Z,34.2
2018-08-17T06:14:31.774Z,34.2
2018-08-17T06:15:34.225Z,34.3
2018-08-17T06:16:35.864Z,34
2018-08-17T06:17:38.303Z,34.2
2018-08-17T06:18:40.486Z,34.3
2018-08-17T06:19:42.676Z,34.2
2018-08-17T06:20:45.145Z,34.2
2018-08-17T06:21:47.607Z,34.2
2018-08-17T06:22:50.103Z,34.3
2018-08-17T06:23:52.284Z,34.2
2018-08-17T06:24:54.448Z,34.1
2018-08-17T06:25:56.595Z,34.2
2018-08-17T06:26:59.047Z,34.3
2018-08-17T06:28:01.491Z,34.2
2018-08-17T06:29:03.943Z,34.2
2018-08-17T06:30:06.395Z,34.1
2018-08-17T06:31:08.545Z,34.3
2018-08-17T06:32:10.451Z,34.2
2018-08-17T06:33:12.900Z,34.1
2018-08-17T06:34:15.364Z,34.1
2018-08-17T06:35:17.824Z,34
2018-08-17T06:36:20.013Z,34
2018-08-17T06:37:22.652Z,34.1
2018-08-17T06:38:25.085Z,34
2018-08-17T06:39:27.537Z,34.1
2018-08-17T06:40:30.004Z,34.1
2018-08-17T06:41:32.160Z,34.1
2018-08-17T06:42:34.628Z,34
2018-08-17T06:43:37.078Z,34.1
2018-08-17T06:44:38.998Z,34.1
2018-08-17T06:45:41.439Z,34.1
2018-08-17T06:46:43.363Z,34.1
2018-08-17T06:47:45.821Z,34.2
2018-08-17T06:48:48.263Z,34.2
2018-08-17T06:49:50.712Z,34.1
2018-08-17T06:50:53.515Z,34
2018-08-17T06:51:56.589Z,34.1
2018-08-17T06:52:59.034Z,34.1
2018-08-17T06:54:01.485Z,34.1
2018-08-17T06:55:03.656Z,34.1
2018-08-17T06:56:05.843Z,34.2
2018-08-17T06:57:08.047Z,34.1
2018-08-17T06:58:10.655Z,34.1
2018-08-17T06:59:12.559Z,34.3
2018-08-17T07:00:14.745Z,34.2
2018-08-17T07:01:16.934Z,34.1
2018-08-17T07:02:19.160Z,34.2
2018-08-17T07:03:21.325Z,34.2
2018-08-17T07:04:23.775Z,34.1
2018-08-17T07:05:26.229Z,34.1
2018-08-17T07:06:28.694Z,34.2
2018-08-17T07:07:31.143Z,34.1
2018-08-17T07:08:33.102Z,34.1
2018-08-17T07:09:35.981Z,34.2
2018-08-17T07:10:38.462Z,34.1
2018-08-17T07:11:40.911Z,34.1
2018-08-17T07:12:43.086Z,34.1
2018-08-17T07:13:45.581Z,34.1
2018-08-17T07:14:48.030Z,34.1
2018-08-17T07:15:50.478Z,34.1
2018-08-17T07:16:52.664Z,34.1
2018-08-17T07:17:55.130Z,34.1
2018-08-17T07:18:57.587Z,34.1
2018-08-17T07:20:00.035Z,34.3
2018-08-17T07:21:02.489Z,34.1
2018-08-17T07:22:04.657Z,34.1
2018-08-17T07:23:06.826Z,34
2018-08-17T07:24:08.135Z,34.2
2018-08-17T07:25:10.576Z,34.2
2018-08-17T07:26:12.781Z,34.1
2018-08-17T07:27:14.936Z,34.2
2018-08-17T07:28:16.924Z,34.1
2018-08-17T07:29:19.647Z,34.1
2018-08-17T07:30:22.095Z,34.2
2018-08-17T07:31:24.541Z,34.2
2018-08-17T07:32:26.992Z,34
2018-08-17T07:33:29.436Z,34.1
2018-08-17T07:34:31.619Z,34.1
2018-08-17T07:35:33.896Z,34.1
2018-08-17T07:36:36.123Z,34.1
2018-08-17T07:37:38.025Z,33.9
2018-08-17T07:38:40.470Z,34.1
2018-08-17T07:39:42.372Z,34
2018-08-17T07:40:44.840Z,34.2
2018-08-17T07:41:47.177Z,34.1
2018-08-17T07:42:49.590Z,34.1
2018-08-17T07:43:51.767Z,34.1
2018-08-17T07:44:54.219Z,34.1
2018-08-17T07:45:56.370Z,34
2018-08-17T07:46:58.818Z,34.2
2018-08-17T07:48:01.449Z,34
2018-08-17T07:49:03.383Z,34.1
2018-08-17T07:50:05.831Z,34
2018-08-17T07:51:08.293Z,34.1
2018-08-17T07:52:09.918Z,34
2018-08-17T07:53:11.798Z,34.1
2018-08-17T07:54:13.967Z,34
2018-08-17T07:55:16.164Z,34.2
2018-08-17T07:56:18.615Z,34.1
2018-08-17T07:57:20.782Z,34.1
2018-08-17T07:58:22.973Z,34.1
2018-08-17T07:59:24.870Z,34
2018-08-17T08:00:27.047Z,34
2018-08-17T08:01:29.504Z,34
2018-08-17T08:02:31.696Z,34.1
2018-08-17T08:03:34.157Z,33.9
2018-08-17T08:04:36.605Z,34.1
2018-08-17T08:05:38.787Z,34
2018-08-17T08:06:41.240Z,34
2018-08-17T08:07:43.678Z,34
2018-08-17T08:08:45.851Z,34.2
2018-08-17T08:09:47.722Z,34.2
2018-08-17T08:10:50.169Z,34.1
2018-08-17T08:11:51.794Z,34
2018-08-17T08:12:54.250Z,34.2
2018-08-17T08:13:56.696Z,34
2018-08-17T08:14:59.141Z,34.1
2018-08-17T08:16:01.309Z,34.2
2018-08-17T08:17:03.471Z,34.1
2018-08-17T08:18:05.373Z,34.1
2018-08-17T08:19:07.002Z,34.1
2018-08-17T08:20:09.180Z,34.2
2018-08-17T08:21:11.728Z,34
2018-08-17T08:22:14.167Z,34
2018-08-17T08:23:16.627Z,34.3
2018-08-17T08:24:19.073Z,34.2
2018-08-17T08:25:21.539Z,34
2018-08-17T08:26:23.751Z,34
2018-08-17T08:27:26.205Z,34.2
2018-08-17T08:28:28.107Z,34.1
2018-08-17T08:29:30.549Z,34
2018-08-17T08:30:32.995Z,34
2018-08-17T08:31:35.210Z,34.1
2018-08-17T08:32:37.721Z,34.1
2018-08-17T08:33:40.168Z,34.2
2018-08-17T08:34:42.086Z,34.1
2018-08-17T08:35:43.973Z,34
2018-08-17T08:36:46.159Z,34.1
2018-08-17T08:37:48.621Z,34.1
2018-08-17T08:38:51.059Z,34
2018-08-17T08:39:53.306Z,34.1
2018-08-17T08:40:55.604Z,34.1
2018-08-17T08:41:58.099Z,34.1
2018-08-17T08:43:00.250Z,34.1
2018-08-17T08:44:02.437Z,34.2
2018-08-17T08:45:04.877Z,34
2018-08-17T08:46:06.802Z,34
2018-08-17T08:47:09.265Z,34
2018-08-17T08:48:11.407Z,34
2018-08-17T08:49:13.870Z,34
2018-08-17T08:50:16.334Z,34
2018-08-17T08:51:18.787Z,34
2018-08-17T08:52:21.240Z,34.1
2018-08-17T08:53:23.690Z,34.1
2018-08-17T08:54:25.865Z,34.1
2018-08-17T08:55:28.063Z,34.1
2018-08-17T08:56:30.248Z,34.2
2018-08-17T08:57:32.700Z,34
2018-08-17T08:58:34.597Z,34.2
2018-08-17T08:59:37.055Z,34.1
2018-08-17T09:00:39.235Z,34.1
2018-08-17T09:01:41.849Z,34.1
2018-08-17T09:02:44.172Z,34
2018-08-17T09:03:46.383Z,34.1
2018-08-17T09:04:48.545Z,34.1
2018-08-17T09:05:50.994Z,34.1
2018-08-17T09:06:53.457Z,34
2018-08-17T09:07:55.380Z,34.1
2018-08-17T09:08:57.550Z,34
2018-08-17T09:09:59.997Z,34.1
2018-08-17T09:11:02.234Z,34
2018-08-17T09:12:04.694Z,34.1
2018-08-17T09:13:07.149Z,34.3
2018-08-17T09:14:08.771Z,34.2
2018-08-17T09:15:10.703Z,34.1
2018-08-17T09:16:13.143Z,34.1
2018-08-17T09:17:15.337Z,34.1
2018-08-17T09:18:17.796Z,34
2018-08-17T09:19:19.711Z,34.2
2018-08-17T09:20:22.225Z,34.2
2018-08-17T09:21:24.643Z,34.1
2018-08-17T09:22:27.158Z,34.1
2018-08-17T09:23:29.601Z,34.2
2018-08-17T09:24:32.059Z,34.2
2018-08-17T09:25:34.240Z,34
2018-08-17T09:26:36.149Z,34.3
2018-08-17T09:27:38.602Z,34.3
2018-08-17T09:28:40.811Z,34.3
2018-08-17T09:29:43.005Z,34.2
2018-08-17T09:30:45.194Z,34.2
2018-08-17T09:31:47.546Z,34.2
2018-08-17T09:32:49.696Z,34.2
2018-08-17T09:33:51.337Z,34.2
2018-08-17T09:34:53.778Z,34.2
2018-08-17T09:35:56.281Z,34.2
2018-08-17T09:36:58.774Z,34.2
2018-08-17T09:38:01.216Z,34.2
2018-08-17T09:39:03.416Z,34.3
2018-08-17T09:40:05.595Z,34.4
2018-08-17T09:41:07.783Z,34.1
2018-08-17T09:42:10.247Z,34.2
2018-08-17T09:43:12.388Z,34.3
2018-08-17T09:44:14.560Z,34.2
2018-08-17T09:45:16.764Z,34.3
2018-08-17T09:46:19.201Z,34.3
2018-08-17T09:47:21.392Z,34.2
2018-08-17T09:48:23.269Z,34.2
2018-08-17T09:49:25.424Z,34.3
2018-08-17T09:50:27.886Z,34.3
2018-08-17T09:51:30.260Z,34.2
2018-08-17T09:52:32.718Z,34.3
2018-08-17T09:53:34.629Z,34.3
2018-08-17T09:54:37.071Z,34.2
2018-08-17T09:55:39.517Z,34.2
2018-08-17T09:56:41.738Z,34.3
2018-08-17T09:57:44.474Z,34.3
2018-08-17T09:58:47.160Z,34.4
2018-08-17T09:59:49.056Z,34.3
2018-08-17T10:00:51.507Z,34.2
2018-08-17T10:01:53.968Z,34.3
2018-08-17T10:02:56.411Z,34.3
2018-08-17T10:03:58.932Z,34.2
2018-08-17T10:05:01.243Z,34.1
2018-08-17T10:06:03.144Z,34.3
2018-08-17T10:07:05.586Z,34.1
2018-08-17T10:08:07.746Z,34.3
2018-08-17T10:09:09.927Z,34.2
2018-08-17T10:10:12.087Z,34.3
2018-08-17T10:11:14.286Z,34.2
2018-08-17T10:12:15.902Z,34.4
2018-08-17T10:13:18.067Z,34.3
2018-08-17T10:14:20.217Z,34.3
2018-08-17T10:15:22.398Z,34.2
2018-08-17T10:16:24.857Z,34.2
2018-08-17T10:17:27.302Z,34.2
2018-08-17T10:18:29.477Z,34.2
2018-08-17T10:19:31.932Z,34.3
2018-08-17T10:20:34.108Z,34.1
2018-08-17T10:21:36.692Z,34.3
2018-08-17T10:22:41.680Z,34.2
2018-08-17T10:23:43.865Z,34.2
2018-08-17T10:24:46.319Z,34.3
2018-08-17T10:25:48.528Z,34.1
2018-08-17T10:26:50.411Z,34.2
2018-08-17T10:27:52.862Z,34.1
2018-08-17T10:28:55.319Z,34.2
2018-08-17T10:29:57.770Z,34.3
2018-08-17T10:31:00.215Z,34.2
2018-08-17T10:32:02.392Z,34.3
2018-08-17T10:33:04.558Z,34.3
2018-08-17T10:34:07.210Z,34.1
2018-08-17T10:35:09.905Z,34.1
2018-08-17T10:36:12.081Z,34.4
2018-08-17T10:37:14.260Z,34.3
2018-08-17T10:38:16.716Z,34.2
2018-08-17T10:39:19.168Z,34.3
2018-08-17T10:40:21.348Z,34.3
2018-08-17T10:41:23.537Z,34.2
2018-08-17T10:42:25.445Z,34.2
2018-08-17T10:43:27.896Z,34.3
2018-08-17T10:44:30.338Z,34.3
2018-08-17T10:45:32.784Z,34.3
2018-08-17T10:46:35.236Z,34.2
2018-08-17T10:47:37.197Z,34.1
2018-08-17T10:48:39.440Z,34.3
2018-08-17T10:49:41.790Z,34.3
2018-08-17T10:50:44.235Z,34.2
2018-08-17T10:51:46.692Z,34.1
2018-08-17T10:52:49.126Z,34.3
2018-08-17T10:53:51.269Z,34.2
2018-08-17T10:54:53.738Z,34.1
2018-08-17T10:55:55.916Z,34.2
2018-08-17T10:56:58.377Z,34.3
2018-08-17T10:58:00.308Z,34.2
2018-08-17T10:59:02.817Z,34.3
2018-08-17T11:00:05.275Z,34.3
2018-08-17T11:01:07.721Z,34.3
2018-08-17T11:02:09.918Z,34.1
2018-08-17T11:03:12.366Z,34.2
2018-08-17T11:04:14.810Z,34.3
2018-08-17T11:05:17.266Z,34.2
2018-08-17T11:06:19.710Z,34.3
2018-08-17T11:07:22.165Z,34.5
2018-08-17T11:08:24.340Z,34.1
2018-08-17T11:09:26.796Z,34.2
2018-08-17T11:10:28.960Z,34.4
2018-08-17T11:11:30.891Z,34.2
2018-08-17T11:12:33.324Z,34.2
2018-08-17T11:13:35.679Z,34.3
2018-08-17T11:14:38.007Z,34.2
2018-08-17T11:15:39.929Z,34.3
2018-08-17T11:16:42.075Z,34.3
2018-08-17T11:17:44.291Z,34.3
2018-08-17T11:18:46.746Z,34.3
2018-08-17T11:19:49.192Z,34.2
2018-08-17T11:20:51.377Z,34.3
2018-08-17T11:21:53.557Z,34.2
2018-08-17T11:22:56.121Z,34.2
2018-08-17T11:23:59.020Z,34.1
2018-08-17T11:25:01.480Z,34.3
2018-08-17T11:26:03.927Z,34.2
2018-08-17T11:27:06.094Z,34.3
2018-08-17T11:28:08.535Z,34.2
2018-08-17T11:29:10.987Z,34.3
2018-08-17T11:30:12.864Z,34.3
2018-08-17T11:31:15.321Z,34.3
2018-08-17T11:32:17.219Z,34.2
2018-08-17T11:33:19.379Z,34.2
2018-08-17T11:34:21.944Z,34.2
2018-08-17T11:35:24.378Z,34.3
2018-08-17T11:36:26.824Z,34.4
2018-08-17T11:37:29.263Z,34.3
2018-08-17T11:38:31.713Z,34.2
2018-08-17T11:39:33.619Z,34.4
2018-08-17T11:40:35.529Z,34.2
2018-08-17T11:41:37.424Z,34.3
2018-08-17T11:42:39.627Z,34.4
2018-08-17T11:43:41.796Z,34.4
2018-08-17T11:44:43.973Z,34.4
2018-08-17T11:45:46.161Z,34.4
2018-08-17T11:46:48.311Z,34.4
2018-08-17T11:47:50.489Z,34.4
2018-08-17T11:48:52.406Z,34.4
2018-08-17T11:49:54.584Z,34.3
2018-08-17T11:50:56.767Z,34.4
2018-08-17T11:51:58.917Z,34.3
2018-08-17T11:53:01.366Z,34.2
2018-08-17T11:54:03.803Z,34.4
2018-08-17T11:55:06.014Z,34.4
2018-08-17T11:56:08.196Z,34.3
2018-08-17T11:57:10.416Z,34.4
2018-08-17T11:58:12.873Z,34.3
2018-08-17T11:59:15.046Z,34.2
2018-08-17T12:00:16.955Z,34.3
2018-08-17T12:01:19.139Z,34.3
2018-08-17T12:02:21.325Z,34.3
2018-08-17T12:03:23.283Z,34.2
2018-08-17T12:04:25.456Z,34.3
2018-08-17T12:05:27.341Z,34.4
2018-08-17T12:06:29.796Z,34.3
2018-08-17T12:07:31.975Z,34.4
2018-08-17T12:08:34.635Z,34.3
2018-08-17T12:09:37.114Z,34.3
2018-08-17T12:10:39.285Z,34.4
2018-08-17T12:11:41.736Z,34.3
2018-08-17T12:12:43.889Z,34.4
2018-08-17T12:13:45.505Z,34.3
2018-08-17T12:14:47.667Z,34.5
2018-08-17T12:15:50.106Z,34.5
2018-08-17T12:16:52.552Z,34.3
2018-08-17T12:17:54.433Z,34.4
2018-08-17T12:18:56.618Z,34.4
2018-08-17T12:19:59.053Z,34.3
2018-08-17T12:21:00.688Z,34.4
2018-08-17T12:22:03.127Z,34.3
2018-08-17T12:23:05.005Z,34.4
2018-08-17T12:24:07.235Z,34.4
2018-08-17T12:25:09.442Z,34.4
2018-08-17T12:26:12.541Z,34.3
2018-08-17T12:27:14.413Z,34.5
2018-08-17T12:28:16.605Z,34.3
2018-08-17T12:29:18.777Z,34.5
2018-08-17T12:30:20.386Z,34.5
2018-08-17T12:31:22.828Z,34.5
2018-08-17T12:32:25.287Z,34.3
2018-08-17T12:33:27.438Z,34.4
2018-08-17T12:34:29.614Z,34.3
2018-08-17T12:35:31.812Z,34.5
2018-08-17T12:36:33.727Z,34.5
2018-08-17T12:37:35.907Z,34.3
2018-08-17T12:38:38.360Z,34.3
2018-08-17T12:39:40.817Z,34.4
2018-08-17T12:40:42.998Z,34.3
2018-08-17T12:41:45.176Z,34.4
2018-08-17T12:42:47.638Z,34.4
2018-08-17T12:43:49.527Z,34.5
2018-08-17T12:44:51.717Z,34.4
2018-08-17T12:45:54.167Z,34.3
2018-08-17T12:46:56.347Z,34.3
2018-08-17T12:47:58.796Z,34.4
2018-08-17T12:49:00.969Z,34.3
2018-08-17T12:50:02.857Z,34.4
2018-08-17T12:51:05.046Z,34.4
2018-08-17T12:52:07.487Z,34.5
2018-08-17T12:53:09.758Z,34.3
2018-08-17T12:54:12.206Z,34.4
2018-08-17T12:55:14.121Z,34.5
2018-08-17T12:56:16.574Z,34.4
2018-08-17T12:57:19.023Z,34.5
2018-08-17T12:58:21.165Z,34.2
2018-08-17T12:59:23.619Z,34.4
2018-08-17T13:00:26.063Z,34.4
2018-08-17T13:01:28.522Z,34.4
2018-08-17T13:02:30.976Z,34.3
2018-08-17T13:03:33.436Z,34.3
2018-08-17T13:04:35.308Z,34.3
2018-08-17T13:05:37.761Z,34.3
2018-08-17T13:06:39.926Z,34.3
2018-08-17T13:07:42.104Z,34.2
2018-08-17T13:08:44.560Z,34.5
2018-08-17T13:09:47.006Z,34.3
2018-08-17T13:10:49.382Z,34.3
2018-08-17T13:11:51.276Z,34.3
2018-08-17T13:12:53.739Z,34.3
2018-08-17T13:13:55.914Z,34.4
2018-08-17T13:14:58.371Z,34.3
2018-08-17T13:16:00.544Z,34.3
2018-08-17T13:17:02.731Z,34.4
2018-08-17T13:18:05.188Z,34.1
2018-08-17T13:19:07.651Z,34.2
2018-08-17T13:20:10.105Z,34.4
2018-08-17T13:21:12.299Z,34.2
2018-08-17T13:22:13.922Z,34.4
2018-08-17T13:23:16.361Z,34.3
2018-08-17T13:24:18.820Z,34.4
2018-08-17T13:25:20.987Z,34.3
2018-08-17T13:26:23.160Z,34.3
2018-08-17T13:27:25.350Z,34.4
2018-08-17T13:28:27.232Z,34.5
2018-08-17T13:29:29.664Z,34.4
2018-08-17T13:30:31.541Z,34.3
2018-08-17T13:31:33.727Z,34.1
2018-08-17T13:32:36.184Z,34.2
2018-08-17T13:33:38.638Z,34.1
2018-08-17T13:34:40.831Z,34.4
2018-08-17T13:35:42.709Z,34.3
2018-08-17T13:36:44.867Z,34.4
2018-08-17T13:37:46.783Z,34.2
2018-08-17T13:38:48.675Z,34.3
2018-08-17T13:39:50.930Z,34.3
2018-08-17T13:40:53.471Z,34.2
2018-08-17T13:41:55.643Z,34.3
2018-08-17T13:42:57.820Z,34.3
2018-08-17T13:44:00.274Z,34.4
2018-08-17T13:45:02.725Z,34.2
2018-08-17T13:46:04.640Z,34.3
2018-08-17T13:47:06.817Z,34.2
2018-08-17T13:48:09.260Z,34.3
2018-08-17T13:49:11.435Z,34.3
2018-08-17T13:50:13.607Z,34.3
2018-08-17T13:51:16.057Z,34.3
2018-08-17T13:52:18.512Z,34.4
2018-08-17T13:53:20.993Z,34.3
2018-08-17T13:54:23.200Z,34.3